Time;durP1;ratioP1;P1;durP2;ratioP2;P2;SDS_P1;SDS_P2;PMS_P1;PMS_P2;Temp;Humidity;BMP_temperature;BMP_pressure;BME280_temperature;BME280_humidity;BME280_pressure;Samples;Min_cycle;Max_cycle;Signal;HPM_P1;HPM_P2
2021/11/11 00:00:19;;;;;;;;;;;;;;;;;;1889915;28;7109;-65
2021/11/11 00:01:16;;;;;;;;;;;;;;;;;;1892562;28;7001;-65
2021/11/11 00:02:17;;;;;;;;;;;;;;;;;;1889698;28;8036;-64
2021/11/11 00:03:15;;;;;;;;;;;;;;;;;;1890262;28;7107;-64
2021/11/11 00:04:16;;;;;;;;;;;;;;;;;;1890744;28;7104;-65
2021/11/11 00:05:14;;;;;;;;;;;;;;;;;;1897494;28;7113;-65
2021/11/11 00:06:11;;;;;;;;;;;;;;;;;;1897194;28;7009;-63
2021/11/11 00:07:10;;;;;;;;;;;;;;;;;;1890795;28;7006;-65
2021/11/11 00:08:08;;;;;;;;;;;;;;;;;;1890601;28;7042;-65
2021/11/11 00:09:05;;;;;;;;;;;;;;;;;;1889403;28;7093;-64
2021/11/11 00:10:03;;;;;;;;;;;;;;;;;;1888512;28;7088;-65
2021/11/11 00:11:01;;;;;;;;;;;;;;;;;;1889530;28;7034;-65
2021/11/11 00:11:59;;;;;;;;;;;;;;;;;;1889672;28;7097;-65
2021/11/11 00:12:57;;;;;;;;;;;;;;;;;;1889111;28;7006;-65
2021/11/11 00:13:54;;;;;;;;;;;;;;;;;;1889388;28;7005;-65
2021/11/11 00:14:52;;;;;;;;;;;;;;;;;;1889680;28;7046;-65
2021/11/11 00:15:51;;;;;;;;;;;;;;;;;;1889455;28;7002;-65
2021/11/11 00:16:48;;;;;;;;;;;;;;;;;;1889368;28;7205;-65
2021/11/11 00:17:48;;;;;;;;;;;;;;;;;;1896498;28;7124;-65
2021/11/11 00:18:45;;;;;;;;;;;;;;;;;;1891714;28;7005;-64
2021/11/11 00:19:42;;;;;;;;;;;;;;;;;;1889739;28;7025;-66
2021/11/11 00:20:40;;;;;;;;;;;;;;;;;;1892046;28;7001;-65
2021/11/11 00:21:37;;;;;;;;;;;;;;;;;;1889808;28;7116;-64
2021/11/11 00:22:35;;;;;;;;;;;;;;;;;;1890356;28;7009;-65
2021/11/11 00:23:32;;;;;;;;;;;;;;;;;;1889992;28;7002;-65
2021/11/11 00:24:30;;;;;;;;;;;;;;;;;;1890504;28;7034;-64
2021/11/11 00:25:29;;;;;;;;;;;;;;;;;;1890812;28;7233;-65
2021/11/11 00:26:28;;;;;;;;;;;;;;;;;;1895995;28;7010;-65
2021/11/11 00:27:25;;;;;;;;;;;;;;;;;;1896757;28;7014;-65
2021/11/11 00:28:23;;;;;;;;;;;;;;;;;;1891549;28;7026;-64
2021/11/11 00:29:20;;;;;;;;;;;;;;;;;;1890373;28;7057;-65
2021/11/11 00:30:19;;;;;;;;;;;;;;;;;;1888933;28;7117;-66
2021/11/11 00:31:17;;;;;;;;;;;;;;;;;;1905735;28;7025;-64
2021/11/11 00:32:14;;;;;;;;;;;;;;;;;;1899140;28;7017;-66
2021/11/11 00:33:12;;;;;;;;;;;;;;;;;;1890223;28;7017;-66
2021/11/11 00:34:10;;;;;;;;;;;;;;;;;;1890520;28;7113;-65
2021/11/11 00:35:08;;;;;;;;;;;;;;;;;;1889793;28;7092;-65
2021/11/11 00:36:06;;;;;;;;;;;;;;;;;;1891240;28;7096;-65
2021/11/11 00:37:03;;;;;;;;;;;;;;;;;;1892538;28;7025;-65
2021/11/11 00:38:01;;;;;;;;;;;;;;;;;;1889687;28;7017;-65
2021/11/11 00:38:58;;;;;;;;;;;;;;;;;;1889591;28;7364;-65
2021/11/11 00:39:57;;;;;;;;;;;;;;;;;;1889184;28;7059;-64
2021/11/11 00:40:54;;;;;;;;;;;;;;;;;;1892788;28;7005;-65
2021/11/11 00:41:51;;;;;;;;;;;;;;;;;;1889447;28;7005;-65
2021/11/11 00:42:49;;;;;;;;;;;;;;;;;;1889772;28;7042;-65
2021/11/11 00:43:46;;;;;;;;;;;;;;;;;;1889968;28;7164;-65
2021/11/11 00:44:45;;;;;;;;;;;;;;;;;;1890771;28;7056;-65
2021/11/11 00:45:42;;;;;;;;;;;;;;;;;;1893854;28;7107;-65
2021/11/11 00:46:40;;;;;;;;;;;;;;;;;;1898257;28;7458;-64
2021/11/11 00:47:37;;;;;;;;;;;;;;;;;;1896090;28;7140;-65
2021/11/11 00:48:35;;;;;;;;;;;;;;;;;;1893392;28;7093;-65
2021/11/11 00:49:32;;;;;;;;;;;;;;;;;;1890058;28;7010;-64
2021/11/11 00:50:31;;;;;;;;;;;;;;;;;;1889010;28;7026;-64
2021/11/11 00:51:28;;;;;;;;;;;;;;;;;;1890228;28;7333;-64
2021/11/11 00:52:26;;;;;;;;;;;;;;;;;;1890044;28;7135;-64
2021/11/11 00:53:23;;;;;;;;;;;;;;;;;;1889369;28;7093;-64
2021/11/11 00:54:21;;;;;;;;;;;;;;;;;;1889872;28;7010;-65
2021/11/11 00:55:19;;;;;;;;;;;;;;;;;;1891804;28;7368;-64
2021/11/11 00:56:20;;;;;;;;;;;;;;;;;;1897483;28;7009;-65
2021/11/11 00:57:17;;;;;;;;;;;;;;;;;;1897672;28;7005;-65
2021/11/11 00:58:15;;;;;;;;;;;;;;;;;;1894738;28;7005;-65
2021/11/11 00:59:12;;;;;;;;;;;;;;;;;;1897392;28;8043;-65
2021/11/11 01:00:11;;;;;;;;;;;;;;;;;;1891014;28;7009;-65
2021/11/11 01:01:09;;;;;;;;;;;;;;;;;;1890180;28;7034;-65
2021/11/11 01:02:08;;;;;;;;;;;;;;;;;;1889058;28;7018;-65
2021/11/11 01:03:08;;;;;;;;;;;;;;;;;;1893253;28;7013;-65
2021/11/11 01:04:06;;;;;;;;;;;;;;;;;;1889953;28;7104;-65
2021/11/11 01:05:05;;;;;;;;;;;;;;;;;;1895352;28;7133;-65
2021/11/11 01:06:02;;;;;;;;;;;;;;;;;;1894043;28;7128;-64
2021/11/11 01:06:59;;;;;;;;;;;;;;;;;;1895977;28;8868;-65
2021/11/11 01:07:57;;;;;;;;;;;;;;;;;;1897488;28;7009;-65
2021/11/11 01:08:56;;;;;;;;;;;;;;;;;;1890280;28;7009;-65
2021/11/11 01:09:54;;;;;;;;;;;;;;;;;;1889945;28;7010;-65
2021/11/11 01:10:51;;;;;;;;;;;;;;;;;;1890355;28;7069;-64
2021/11/11 01:11:49;;;;;;;;;;;;;;;;;;1897030;28;7010;-65
2021/11/11 01:12:47;;;;;;;;;;;;;;;;;;1897526;28;7014;-64
2021/11/11 01:13:45;;;;;;;;;;;;;;;;;;1897411;28;7018;-66
2021/11/11 01:14:42;;;;;;;;;;;;;;;;;;1893063;28;7014;-64
2021/11/11 01:15:39;;;;;;;;;;;;;;;;;;1890202;28;7006;-64
2021/11/11 01:16:37;;;;;;;;;;;;;;;;;;1889686;28;7097;-65
2021/11/11 01:17:35;;;;;;;;;;;;;;;;;;1898360;28;7362;-65
2021/11/11 01:18:33;;;;;;;;;;;;;;;;;;1899220;28;7104;-65
2021/11/11 01:19:30;;;;;;;;;;;;;;;;;;1896868;28;7041;-64
2021/11/11 01:20:28;;;;;;;;;;;;;;;;;;1901564;28;7289;-65
2021/11/11 01:21:25;;;;;;;;;;;;;;;;;;1898252;28;7026;-65
2021/11/11 01:22:23;;;;;;;;;;;;;;;;;;1905083;28;7096;-64
2021/11/11 01:23:20;;;;;;;;;;;;;;;;;;1903699;28;7009;-65
2021/11/11 01:24:18;;;;;;;;;;;;;;;;;;1895866;28;7013;-65
2021/11/11 01:25:19;;;;;;;;;;;;;;;;;;1890047;28;7006;-64
2021/11/11 01:26:16;;;;;;;;;;;;;;;;;;1893453;28;7009;-64
2021/11/11 01:27:13;;;;;;;;;;;;;;;;;;1897235;28;7010;-64
2021/11/11 01:28:11;;;;;;;;;;;;;;;;;;1897081;28;7054;-65
2021/11/11 01:29:09;;;;;;;;;;;;;;;;;;1892945;28;7033;-65
2021/11/11 01:30:06;;;;;;;;;;;;;;;;;;1889358;28;8032;-63
2021/11/11 01:31:04;;;;;;;;;;;;;;;;;;1889382;28;7264;-64
2021/11/11 01:32:02;;;;;;;;;;;;;;;;;;1889918;28;7364;-66
2021/11/11 01:32:59;;;;;;;;;;;;;;;;;;1889520;28;8028;-65
2021/11/11 01:33:57;;;;;;;;;;;;;;;;;;1889762;28;8051;-65
2021/11/11 01:34:54;;;;;;;;;;;;;;;;;;1889697;28;7117;-65
2021/11/11 01:35:51;;;;;;;;;;;;;;;;;;1896635;28;8050;-65
2021/11/11 01:36:49;;;;;;;;;;;;;;;;;;1896710;28;7014;-64
2021/11/11 01:37:46;;;;;;;;;;;;;;;;;;1897939;28;7821;-66
2021/11/11 01:38:44;;;;;;;;;;;;;;;;;;1903672;28;7092;-65
2021/11/11 01:39:42;;;;;;;;;;;;;;;;;;1903683;28;7100;-65
2021/11/11 01:40:39;;;;;;;;;;;;;;;;;;1903647;28;7089;-65
2021/11/11 01:41:37;;;;;;;;;;;;;;;;;;1897858;28;9945;-65
2021/11/11 01:42:44;;;;;;;;;;;;;;;;;;1902290;28;7137;-66
2021/11/11 01:43:43;;;;;;;;;;;;;;;;;;1899016;28;7005;-65
2021/11/11 01:45:06;;;;;;;;;;;;;;;;;;1898360;28;7010;-65
2021/11/11 01:46:04;;;;;;;;;;;;;;;;;;1899209;28;7092;-65
2021/11/11 01:47:01;;;;;;;;;;;;;;;;;;1899428;28;7364;-65
2021/11/11 01:47:59;;;;;;;;;;;;;;;;;;1889980;28;7010;-65
2021/11/11 01:48:57;;;;;;;;;;;;;;;;;;1890953;28;7093;-65
2021/11/11 01:49:54;;;;;;;;;;;;;;;;;;1891693;28;7054;-64
2021/11/11 01:50:52;;;;;;;;;;;;;;;;;;1890237;28;7285;-64
2021/11/11 01:51:50;;;;;;;;;;;;;;;;;;1896333;28;7002;-66
2021/11/11 01:52:48;;;;;;;;;;;;;;;;;;1898690;28;7006;-64
2021/11/11 01:53:46;;;;;;;;;;;;;;;;;;1899564;28;7395;-65
2021/11/11 01:54:44;;;;;;;;;;;;;;;;;;1899066;28;7092;-65
2021/11/11 01:55:43;;;;;;;;;;;;;;;;;;1898845;28;7009;-64
2021/11/11 01:56:41;;;;;;;;;;;;;;;;;;1898829;28;7009;-64
2021/11/11 01:57:39;;;;;;;;;;;;;;;;;;1898511;28;7017;-65
2021/11/11 01:58:36;;;;;;;;;;;;;;;;;;1899033;28;7332;-65
2021/11/11 01:59:34;;;;;;;;;;;;;;;;;;1896612;28;7006;-64
2021/11/11 02:00:42;;;;;;;;;;;;;;;;;;1891457;28;7289;-63
2021/11/11 02:01:40;;;;;;;;;;;;;;;;;;1891214;28;7010;-65
2021/11/11 02:02:38;;;;;;;;;;;;;;;;;;1892715;28;8159;-64
2021/11/11 02:03:35;;;;;;;;;;;;;;;;;;1898940;28;7009;-66
2021/11/11 02:04:33;;;;;;;;;;;;;;;;;;1898488;28;7117;-65
2021/11/11 02:05:31;;;;;;;;;;;;;;;;;;1895754;28;7013;-65
2021/11/11 02:06:29;;;;;;;;;;;;;;;;;;1891959;28;7341;-64
2021/11/11 02:07:26;;;;;;;;;;;;;;;;;;1892206;28;8032;-65
2021/11/11 02:08:25;;;;;;;;;;;;;;;;;;1898538;28;7057;-65
2021/11/11 02:09:22;;;;;;;;;;;;;;;;;;1894029;28;7316;-66
2021/11/11 02:10:21;;;;;;;;;;;;;;;;;;1898899;28;7053;-65
2021/11/11 02:11:20;;;;;;;;;;;;;;;;;;1894173;28;7391;-66
2021/11/11 02:12:18;;;;;;;;;;;;;;;;;;1891671;28;7009;-65
2021/11/11 02:13:16;;;;;;;;;;;;;;;;;;1891351;28;7100;-64
2021/11/11 02:14:14;;;;;;;;;;;;;;;;;;1890868;28;7100;-64
2021/11/11 02:15:13;;;;;;;;;;;;;;;;;;1895045;28;8040;-64
2021/11/11 02:16:11;;;;;;;;;;;;;;;;;;1898030;28;7050;-65
2021/11/11 02:17:09;;;;;;;;;;;;;;;;;;1899096;28;7101;-65
2021/11/11 02:18:08;;;;;;;;;;;;;;;;;;1898372;28;7109;-65
2021/11/11 02:19:08;;;;;;;;;;;;;;;;;;1896733;28;7013;-65
2021/11/11 02:20:13;;;;;;;;;;;;;;;;;;1891074;28;7113;-65
2021/11/11 02:21:12;;;;;;;;;;;;;;;;;;1891975;28;7092;-64
2021/11/11 02:22:10;;;;;;;;;;;;;;;;;;1898639;28;7113;-65
2021/11/11 02:23:11;;;;;;;;;;;;;;;;;;1896621;28;8068;-65
2021/11/11 02:24:08;;;;;;;;;;;;;;;;;;1897638;28;7005;-65
2021/11/11 02:25:07;;;;;;;;;;;;;;;;;;1898464;28;7009;-66
2021/11/11 02:26:05;;;;;;;;;;;;;;;;;;1898462;28;7117;-65
2021/11/11 02:27:02;;;;;;;;;;;;;;;;;;1898632;28;7009;-65
2021/11/11 02:28:03;;;;;;;;;;;;;;;;;;1898364;28;7014;-64
2021/11/11 02:29:00;;;;;;;;;;;;;;;;;;1898417;28;7097;-65
2021/11/11 02:29:58;;;;;;;;;;;;;;;;;;1898269;28;7042;-64
2021/11/11 02:30:55;;;;;;;;;;;;;;;;;;1893209;28;7096;-64
2021/11/11 02:31:54;;;;;;;;;;;;;;;;;;1890646;28;8100;-64
2021/11/11 02:32:51;;;;;;;;;;;;;;;;;;1890833;28;7043;-64
2021/11/11 02:33:56;;;;;;;;;;;;;;;;;;1890743;28;7002;-65
2021/11/11 02:34:53;;;;;;;;;;;;;;;;;;1891395;28;7030;-63
2021/11/11 02:35:51;;;;;;;;;;;;;;;;;;1889197;28;7030;-65
2021/11/11 02:36:53;;;;;;;;;;;;;;;;;;1890313;28;8124;-65
2021/11/11 02:37:51;;;;;;;;;;;;;;;;;;1890105;28;7025;-65
2021/11/11 02:38:49;;;;;;;;;;;;;;;;;;1890303;28;7005;-65
2021/11/11 02:39:47;;;;;;;;;;;;;;;;;;1898181;28;7050;-64
2021/11/11 02:40:45;;;;;;;;;;;;;;;;;;1897873;28;7109;-65
2021/11/11 02:41:45;;;;;;;;;;;;;;;;;;1894840;28;7104;-64
2021/11/11 02:42:43;;;;;;;;;;;;;;;;;;1894768;28;8092;-64
2021/11/11 02:43:41;;;;;;;;;;;;;;;;;;1895510;28;7002;-64
2021/11/11 02:44:43;;;;;;;;;;;;;;;;;;1896239;28;7022;-64
2021/11/11 02:45:42;;;;;;;;;;;;;;;;;;1891090;28;7309;-65
2021/11/11 02:46:40;;;;;;;;;;;;;;;;;;1890874;28;7009;-65
2021/11/11 02:47:37;;;;;;;;;;;;;;;;;;1890474;28;7104;-65
2021/11/11 02:48:35;;;;;;;;;;;;;;;;;;1894473;28;7017;-64
2021/11/11 02:49:33;;;;;;;;;;;;;;;;;;1891022;28;8073;-65
2021/11/11 02:50:32;;;;;;;;;;;;;;;;;;1895807;28;7022;-64
2021/11/11 02:51:29;;;;;;;;;;;;;;;;;;1890759;28;7005;-64
2021/11/11 02:52:27;;;;;;;;;;;;;;;;;;1891347;28;7010;-66
2021/11/11 02:53:25;;;;;;;;;;;;;;;;;;1897626;28;7195;-65
2021/11/11 02:54:22;;;;;;;;;;;;;;;;;;1898082;28;7020;-65
2021/11/11 02:55:20;;;;;;;;;;;;;;;;;;1893054;28;7010;-64
2021/11/11 02:56:18;;;;;;;;;;;;;;;;;;1891264;28;7021;-65
2021/11/11 02:57:19;;;;;;;;;;;;;;;;;;1892202;28;7497;-65
2021/11/11 02:58:17;;;;;;;;;;;;;;;;;;1891204;28;7009;-64
2021/11/11 02:59:15;;;;;;;;;;;;;;;;;;1890841;28;8040;-65
2021/11/11 03:00:13;;;;;;;;;;;;;;;;;;1898261;28;7113;-64
2021/11/11 03:01:10;;;;;;;;;;;;;;;;;;1898078;28;7088;-64
2021/11/11 03:02:18;;;;;;;;;;;;;;;;;;1890811;28;7459;-65
2021/11/11 03:03:16;;;;;;;;;;;;;;;;;;1890131;28;7010;-65
2021/11/11 03:04:13;;;;;;;;;;;;;;;;;;1897708;28;7038;-65
2021/11/11 03:05:12;;;;;;;;;;;;;;;;;;1898262;28;7042;-64
2021/11/11 03:06:10;;;;;;;;;;;;;;;;;;1891190;28;7068;-65
2021/11/11 03:07:07;;;;;;;;;;;;;;;;;;1890973;28;7042;-66
2021/11/11 03:08:05;;;;;;;;;;;;;;;;;;1896951;28;7010;-65
2021/11/11 03:09:02;;;;;;;;;;;;;;;;;;1898039;28;7025;-65
2021/11/11 03:10:00;;;;;;;;;;;;;;;;;;1891594;28;7009;-64
2021/11/11 03:10:57;;;;;;;;;;;;;;;;;;1890897;28;7017;-65
2021/11/11 03:11:56;;;;;;;;;;;;;;;;;;1891204;28;7093;-65
2021/11/11 03:12:54;;;;;;;;;;;;;;;;;;1891521;28;7113;-65
2021/11/11 03:13:52;;;;;;;;;;;;;;;;;;1892413;28;8026;-65
2021/11/11 03:14:50;;;;;;;;;;;;;;;;;;1891601;28;7054;-65
2021/11/11 03:15:48;;;;;;;;;;;;;;;;;;1890744;28;7162;-66
2021/11/11 03:16:45;;;;;;;;;;;;;;;;;;1897351;28;7009;-65
2021/11/11 03:17:44;;;;;;;;;;;;;;;;;;1898142;28;7046;-64
2021/11/11 03:18:41;;;;;;;;;;;;;;;;;;1898034;28;7014;-65
2021/11/11 03:19:40;;;;;;;;;;;;;;;;;;1897410;28;7109;-64
2021/11/11 03:20:38;;;;;;;;;;;;;;;;;;1897849;28;8055;-65
2021/11/11 03:21:36;;;;;;;;;;;;;;;;;;1897760;28;7018;-64
2021/11/11 03:22:34;;;;;;;;;;;;;;;;;;1898070;28;7088;-65
2021/11/11 03:23:31;;;;;;;;;;;;;;;;;;1898252;28;7116;-65
2021/11/11 03:24:29;;;;;;;;;;;;;;;;;;1895047;28;7120;-64
2021/11/11 03:25:30;;;;;;;;;;;;;;;;;;1891280;28;7093;-65
2021/11/11 03:26:27;;;;;;;;;;;;;;;;;;1898388;28;7001;-65
2021/11/11 03:27:25;;;;;;;;;;;;;;;;;;1893839;28;7042;-65
2021/11/11 03:28:23;;;;;;;;;;;;;;;;;;1890651;28;8036;-65
2021/11/11 03:29:20;;;;;;;;;;;;;;;;;;1890869;28;7461;-65
2021/11/11 03:30:20;;;;;;;;;;;;;;;;;;1891933;28;7026;-64
2021/11/11 03:31:17;;;;;;;;;;;;;;;;;;1889753;28;7005;-64
2021/11/11 03:32:15;;;;;;;;;;;;;;;;;;1890306;28;7301;-65
2021/11/11 03:33:12;;;;;;;;;;;;;;;;;;1890222;28;7054;-65
2021/11/11 03:34:10;;;;;;;;;;;;;;;;;;1890797;28;7088;-64
2021/11/11 03:35:08;;;;;;;;;;;;;;;;;;1890217;28;7101;-64
2021/11/11 03:36:06;;;;;;;;;;;;;;;;;;1889803;28;7006;-65
2021/11/11 03:37:04;;;;;;;;;;;;;;;;;;1890021;28;7166;-65
2021/11/11 03:38:03;;;;;;;;;;;;;;;;;;1890047;28;7013;-64
2021/11/11 03:39:00;;;;;;;;;;;;;;;;;;1889814;28;7038;-63
2021/11/11 03:39:58;;;;;;;;;;;;;;;;;;1890416;28;7116;-66
2021/11/11 03:40:55;;;;;;;;;;;;;;;;;;1890743;28;7124;-65
2021/11/11 03:41:53;;;;;;;;;;;;;;;;;;1890945;28;7006;-64
2021/11/11 03:42:52;;;;;;;;;;;;;;;;;;1896884;28;7046;-65
2021/11/11 03:43:50;;;;;;;;;;;;;;;;;;1897169;28;7009;-65
2021/11/11 03:44:47;;;;;;;;;;;;;;;;;;1898038;28;7013;-64
2021/11/11 03:45:45;;;;;;;;;;;;;;;;;;1897710;28;8092;-66
2021/11/11 03:46:43;;;;;;;;;;;;;;;;;;1894715;28;7092;-65
2021/11/11 03:47:40;;;;;;;;;;;;;;;;;;1889780;28;7050;-64
2021/11/11 03:48:38;;;;;;;;;;;;;;;;;;1889609;28;8654;-64
2021/11/11 03:49:37;;;;;;;;;;;;;;;;;;1890719;28;7025;-64
2021/11/11 03:50:35;;;;;;;;;;;;;;;;;;1890640;28;7144;-64
2021/11/11 03:51:32;;;;;;;;;;;;;;;;;;1890175;28;7096;-64
2021/11/11 03:52:30;;;;;;;;;;;;;;;;;;1891239;28;7097;-66
2021/11/11 03:53:27;;;;;;;;;;;;;;;;;;1890746;28;7100;-64
2021/11/11 03:54:26;;;;;;;;;;;;;;;;;;1897079;28;7014;-65
2021/11/11 03:55:25;;;;;;;;;;;;;;;;;;1897716;28;7312;-66
2021/11/11 03:56:23;;;;;;;;;;;;;;;;;;1889432;28;7123;-64
2021/11/11 03:57:20;;;;;;;;;;;;;;;;;;1890770;28;7013;-64
2021/11/11 03:58:18;;;;;;;;;;;;;;;;;;1889964;28;7046;-65
2021/11/11 03:59:16;;;;;;;;;;;;;;;;;;1894547;28;7033;-65
2021/11/11 04:00:16;;;;;;;;;;;;;;;;;;1889135;28;7129;-64
2021/11/11 04:01:13;;;;;;;;;;;;;;;;;;1890291;28;8036;-65
2021/11/11 04:02:13;;;;;;;;;;;;;;;;;;1895136;28;7096;-64
2021/11/11 04:03:11;;;;;;;;;;;;;;;;;;1891356;28;7009;-65
2021/11/11 04:04:09;;;;;;;;;;;;;;;;;;1890181;28;7006;-65
2021/11/11 04:05:07;;;;;;;;;;;;;;;;;;1890199;28;7191;-65
2021/11/11 04:06:04;;;;;;;;;;;;;;;;;;1889399;28;7010;-64
2021/11/11 04:07:01;;;;;;;;;;;;;;;;;;1897451;28;7046;-65
2021/11/11 04:07:59;;;;;;;;;;;;;;;;;;1897518;28;7113;-65
2021/11/11 04:08:59;;;;;;;;;;;;;;;;;;1897824;28;7021;-65
2021/11/11 04:09:56;;;;;;;;;;;;;;;;;;1898605;28;7005;-64
2021/11/11 04:10:54;;;;;;;;;;;;;;;;;;1897065;28;7157;-65
2021/11/11 04:11:51;;;;;;;;;;;;;;;;;;1897407;28;7042;-66
2021/11/11 04:12:49;;;;;;;;;;;;;;;;;;1891422;28;7029;-64
2021/11/11 04:13:46;;;;;;;;;;;;;;;;;;1890168;28;7036;-63
2021/11/11 04:14:44;;;;;;;;;;;;;;;;;;1896298;28;7117;-66
2021/11/11 04:15:41;;;;;;;;;;;;;;;;;;1898047;28;7002;-65
2021/11/11 04:16:39;;;;;;;;;;;;;;;;;;1897692;28;7005;-65
2021/11/11 04:17:36;;;;;;;;;;;;;;;;;;1890365;28;7425;-64
2021/11/11 04:18:34;;;;;;;;;;;;;;;;;;1890611;28;7131;-65
2021/11/11 04:19:31;;;;;;;;;;;;;;;;;;1890423;28;7147;-65
2021/11/11 04:20:29;;;;;;;;;;;;;;;;;;1890624;28;7029;-65
2021/11/11 04:21:27;;;;;;;;;;;;;;;;;;1890389;28;7002;-64
2021/11/11 04:22:24;;;;;;;;;;;;;;;;;;1893021;28;7010;-65
2021/11/11 04:23:23;;;;;;;;;;;;;;;;;;1889677;28;7380;-65
2021/11/11 04:24:21;;;;;;;;;;;;;;;;;;1893765;28;7009;-64
2021/11/11 04:25:29;;;;;;;;;;;;;;;;;;1890123;28;7005;-64
2021/11/11 04:26:29;;;;;;;;;;;;;;;;;;1890235;28;7046;-65
2021/11/11 04:27:32;;;;;;;;;;;;;;;;;;1890187;28;7105;-64
2021/11/11 04:28:31;;;;;;;;;;;;;;;;;;1890566;28;7977;-65
2021/11/11 04:29:32;;;;;;;;;;;;;;;;;;1895703;28;7013;-65
2021/11/11 04:30:32;;;;;;;;;;;;;;;;;;1896750;28;7092;-65
2021/11/11 04:31:38;;;;;;;;;;;;;;;;;;1889819;28;7052;-65
2021/11/11 04:32:35;;;;;;;;;;;;;;;;;;1888626;28;7069;-64
2021/11/11 04:33:36;;;;;;;;;;;;;;;;;;1889928;28;7109;-64
2021/11/11 04:34:34;;;;;;;;;;;;;;;;;;1890520;28;7088;-65
2021/11/11 04:35:32;;;;;;;;;;;;;;;;;;1889623;28;7010;-65
2021/11/11 04:40:00;;;;;;;;;;;;;;;;;;1896854;28;7009;-65
2021/11/11 04:49:49;;;;;;;;;;;;;;;;;;1889137;28;7014;-65
2021/11/11 04:51:56;;;;;;;;;;;;;;;;;;1890412;28;7013;-65
2021/11/11 05:00:30;;;;;;;;;;;;;;;;;;1890433;28;8082;-64
2021/11/11 05:04:32;;;;;;;;;;;;;;;;;;1890790;28;7133;-65
2021/11/11 05:05:32;;;;;;;;;;;;;;;;;;1890989;28;7009;-63
2021/11/11 05:06:29;;;;;;;;;;;;;;;;;;1890729;28;7336;-65
2021/11/11 05:07:26;;;;;;;;;;;;;;;;;;1890445;28;8155;-65
2021/11/11 05:08:24;;;;;;;;;;;;;;;;;;1890366;28;7041;-65
2021/11/11 05:09:21;;;;;;;;;;;;;;;;;;1890449;28;7005;-64
2021/11/11 05:10:19;;;;;;;;;;;;;;;;;;1896641;28;7022;-64
2021/11/11 05:11:17;;;;;;;;;;;;;;;;;;1897719;28;7006;-64
2021/11/11 05:12:15;;;;;;;;;;;;;;;;;;1897492;28;7093;-65
2021/11/11 05:13:12;;;;;;;;;;;;;;;;;;1898052;28;7017;-65
2021/11/11 05:14:10;;;;;;;;;;;;;;;;;;1889427;28;7104;-65
2021/11/11 05:15:07;;;;;;;;;;;;;;;;;;1892850;28;7046;-64
2021/11/11 05:16:05;;;;;;;;;;;;;;;;;;1897391;28;7313;-65
2021/11/11 05:17:03;;;;;;;;;;;;;;;;;;1897732;28;7382;-64
2021/11/11 05:18:00;;;;;;;;;;;;;;;;;;1899482;28;7025;-65
2021/11/11 05:18:58;;;;;;;;;;;;;;;;;;1892295;28;7138;-65
2021/11/11 05:19:55;;;;;;;;;;;;;;;;;;1891639;28;7010;-66
2021/11/11 05:20:53;;;;;;;;;;;;;;;;;;1891557;28;7038;-64
2021/11/11 05:21:50;;;;;;;;;;;;;;;;;;1891812;28;7121;-65
2021/11/11 05:22:49;;;;;;;;;;;;;;;;;;1891662;28;7419;-65
2021/11/11 05:23:46;;;;;;;;;;;;;;;;;;1891931;28;7030;-64
2021/11/11 05:24:44;;;;;;;;;;;;;;;;;;1892091;28;7138;-65
2021/11/11 05:25:41;;;;;;;;;;;;;;;;;;1890394;28;7124;-65
2021/11/11 05:26:40;;;;;;;;;;;;;;;;;;1891570;28;7006;-64
2021/11/11 05:27:38;;;;;;;;;;;;;;;;;;1892013;28;7006;-65
2021/11/11 05:28:36;;;;;;;;;;;;;;;;;;1892023;28;7092;-64
2021/11/11 05:29:33;;;;;;;;;;;;;;;;;;1891689;28;7017;-65
2021/11/11 05:30:32;;;;;;;;;;;;;;;;;;1891505;28;7361;-65
2021/11/11 05:31:29;;;;;;;;;;;;;;;;;;1891730;28;7092;-65
2021/11/11 05:32:27;;;;;;;;;;;;;;;;;;1891416;28;7010;-65
2021/11/11 05:33:24;;;;;;;;;;;;;;;;;;1891357;28;7006;-65
2021/11/11 05:34:22;;;;;;;;;;;;;;;;;;1894594;28;7013;-65
2021/11/11 05:35:20;;;;;;;;;;;;;;;;;;1898676;28;7045;-64
2021/11/11 05:36:17;;;;;;;;;;;;;;;;;;1895618;28;7040;-65
2021/11/11 05:37:15;;;;;;;;;;;;;;;;;;1898609;28;7009;-63
2021/11/11 05:38:13;;;;;;;;;;;;;;;;;;1898913;28;7054;-64
2021/11/11 05:39:10;;;;;;;;;;;;;;;;;;1898875;28;7006;-65
2021/11/11 05:40:09;;;;;;;;;;;;;;;;;;1898284;28;7009;-66
2021/11/11 05:41:06;;;;;;;;;;;;;;;;;;1898047;28;7009;-65
2021/11/11 05:42:04;;;;;;;;;;;;;;;;;;1898232;28;7100;-65
2021/11/11 05:43:02;;;;;;;;;;;;;;;;;;1898658;28;8091;-66
2021/11/11 05:43:59;;;;;;;;;;;;;;;;;;1894641;28;7327;-65
2021/11/11 05:44:57;;;;;;;;;;;;;;;;;;1891962;28;7113;-66
2021/11/11 05:45:55;;;;;;;;;;;;;;;;;;1891849;28;7005;-65
2021/11/11 05:46:57;;;;;;;;;;;;;;;;;;1891388;28;7092;-64
2021/11/11 05:47:54;;;;;;;;;;;;;;;;;;1891117;28;8098;-65
2021/11/11 05:48:51;;;;;;;;;;;;;;;;;;1889207;28;7120;-65
2021/11/11 05:49:49;;;;;;;;;;;;;;;;;;1891634;28;7009;-65
2021/11/11 05:50:46;;;;;;;;;;;;;;;;;;1891310;28;7002;-64
2021/11/11 05:51:44;;;;;;;;;;;;;;;;;;1891370;28;7010;-65
2021/11/11 05:52:41;;;;;;;;;;;;;;;;;;1892106;28;7053;-65
2021/11/11 05:53:39;;;;;;;;;;;;;;;;;;1891304;28;7104;-64
2021/11/11 05:54:38;;;;;;;;;;;;;;;;;;1891391;28;7005;-65
2021/11/11 05:55:35;;;;;;;;;;;;;;;;;;1891798;28;7001;-65
2021/11/11 05:56:32;;;;;;;;;;;;;;;;;;1891437;28;7033;-65
2021/11/11 05:57:30;;;;;;;;;;;;;;;;;;1892136;28;7046;-65
2021/11/11 05:58:28;;;;;;;;;;;;;;;;;;1899375;28;7092;-65
2021/11/11 05:59:26;;;;;;;;;;;;;;;;;;1898257;28;7002;-65
2021/11/11 06:00:24;;;;;;;;;;;;;;;;;;1896467;28;7144;-65
2021/11/11 06:01:22;;;;;;;;;;;;;;;;;;1898754;28;7005;-64
2021/11/11 06:02:19;;;;;;;;;;;;;;;;;;1899253;28;7013;-64
2021/11/11 06:03:17;;;;;;;;;;;;;;;;;;1898812;28;8011;-66
2021/11/11 06:04:15;;;;;;;;;;;;;;;;;;1905961;28;7013;-65
2021/11/11 06:05:13;;;;;;;;;;;;;;;;;;1906092;28;7119;-65
2021/11/11 06:06:10;;;;;;;;;;;;;;;;;;1899497;28;7041;-65
2021/11/11 06:07:09;;;;;;;;;;;;;;;;;;1898909;28;7359;-64
2021/11/11 06:08:06;;;;;;;;;;;;;;;;;;1890573;28;7101;-66
2021/11/11 06:09:03;;;;;;;;;;;;;;;;;;1891272;28;7010;-66
2021/11/11 06:10:01;;;;;;;;;;;;;;;;;;1891690;28;7017;-65
2021/11/11 06:10:59;;;;;;;;;;;;;;;;;;1891640;28;7388;-65
2021/11/11 06:11:57;;;;;;;;;;;;;;;;;;1891201;28;7045;-65
2021/11/11 06:12:54;;;;;;;;;;;;;;;;;;1891402;28;7002;-65
2021/11/11 06:13:52;;;;;;;;;;;;;;;;;;1892017;28;7009;-64
2021/11/11 06:14:49;;;;;;;;;;;;;;;;;;1891948;28;7038;-66
2021/11/11 06:15:47;;;;;;;;;;;;;;;;;;1898054;28;7046;-65
2021/11/11 06:16:44;;;;;;;;;;;;;;;;;;1898267;28;8011;-63
2021/11/11 06:17:44;;;;;;;;;;;;;;;;;;1898707;28;7010;-64
2021/11/11 06:18:41;;;;;;;;;;;;;;;;;;1898666;28;7092;-65
2021/11/11 06:19:41;;;;;;;;;;;;;;;;;;1889905;28;7009;-65
2021/11/11 06:20:44;;;;;;;;;;;;;;;;;;1895976;28;7005;-64
2021/11/11 06:21:42;;;;;;;;;;;;;;;;;;1895016;28;7021;-65
2021/11/11 06:22:40;;;;;;;;;;;;;;;;;;1895664;28;7009;-65
2021/11/11 06:23:38;;;;;;;;;;;;;;;;;;1893434;28;7113;-65
2021/11/11 06:24:35;;;;;;;;;;;;;;;;;;1898929;28;7010;-64
2021/11/11 06:25:32;;;;;;;;;;;;;;;;;;1898387;28;7013;-66
2021/11/11 06:26:31;;;;;;;;;;;;;;;;;;1898883;28;7002;-65
2021/11/11 06:27:28;;;;;;;;;;;;;;;;;;1891617;28;7006;-66
2021/11/11 06:28:25;;;;;;;;;;;;;;;;;;1891925;28;7022;-65
2021/11/11 06:29:23;;;;;;;;;;;;;;;;;;1896147;28;7372;-65
2021/11/11 06:30:20;;;;;;;;;;;;;;;;;;1896971;28;7108;-66
2021/11/11 06:31:18;;;;;;;;;;;;;;;;;;1897499;28;7108;-65
2021/11/11 06:32:16;;;;;;;;;;;;;;;;;;1897691;28;7097;-65
2021/11/11 06:33:33;;;;;;;;;;;;;;;;;;1897330;28;7392;-66
2021/11/11 06:34:31;;;;;;;;;;;;;;;;;;1898393;28;7013;-65
2021/11/11 06:35:30;;;;;;;;;;;;;;;;;;1898540;28;7181;-65
2021/11/11 06:36:28;;;;;;;;;;;;;;;;;;1892411;28;7002;-66
2021/11/11 06:37:28;;;;;;;;;;;;;;;;;;1891232;28;7045;-66
2021/11/11 06:38:25;;;;;;;;;;;;;;;;;;1897819;28;7025;-66
2021/11/11 06:39:23;;;;;;;;;;;;;;;;;;1897600;28;7030;-65
2021/11/11 06:40:20;;;;;;;;;;;;;;;;;;1890882;28;7013;-65
2021/11/11 06:41:18;;;;;;;;;;;;;;;;;;1895400;28;7311;-64
2021/11/11 06:42:15;;;;;;;;;;;;;;;;;;1898128;28;7009;-66
2021/11/11 06:43:12;;;;;;;;;;;;;;;;;;1892194;28;7010;-65
2021/11/11 06:44:10;;;;;;;;;;;;;;;;;;1890243;28;7009;-70
2021/11/11 06:45:11;;;;;;;;;;;;;;;;;;1891748;28;7017;-66
2021/11/11 06:46:09;;;;;;;;;;;;;;;;;;1890702;28;7045;-65
2021/11/11 06:47:07;;;;;;;;;;;;;;;;;;1891080;28;7097;-65
2021/11/11 06:48:05;;;;;;;;;;;;;;;;;;1890204;28;7005;-66
2021/11/11 06:49:03;;;;;;;;;;;;;;;;;;1890306;28;7108;-66
2021/11/11 06:50:00;;;;;;;;;;;;;;;;;;1891431;28;7160;-65
2021/11/11 06:50:58;;;;;;;;;;;;;;;;;;1897551;28;7118;-65
2021/11/11 06:51:56;;;;;;;;;;;;;;;;;;1897899;28;7054;-65
2021/11/11 06:52:53;;;;;;;;;;;;;;;;;;1892580;28;8039;-66
2021/11/11 06:53:50;;;;;;;;;;;;;;;;;;1890743;28;7113;-66
2021/11/11 06:54:48;;;;;;;;;;;;;;;;;;1891126;28;7092;-65
2021/11/11 06:55:47;;;;;;;;;;;;;;;;;;1890988;28;7109;-65
2021/11/11 06:56:44;;;;;;;;;;;;;;;;;;1891133;28;7396;-64
2021/11/11 06:57:42;;;;;;;;;;;;;;;;;;1891858;28;7006;-64
2021/11/11 06:58:40;;;;;;;;;;;;;;;;;;1891941;28;7009;-65
2021/11/11 06:59:37;;;;;;;;;;;;;;;;;;1893324;28;8095;-64
2021/11/11 07:00:35;;;;;;;;;;;;;;;;;;1889765;28;7046;-65
2021/11/11 07:01:33;;;;;;;;;;;;;;;;;;1890589;28;7038;-64
2021/11/11 07:02:31;;;;;;;;;;;;;;;;;;1897891;28;7110;-64
2021/11/11 07:03:29;;;;;;;;;;;;;;;;;;1891209;28;7054;-65
2021/11/11 07:04:26;;;;;;;;;;;;;;;;;;1891234;28;7021;-65
2021/11/11 07:05:24;;;;;;;;;;;;;;;;;;1891356;28;7005;-66
2021/11/11 07:06:21;;;;;;;;;;;;;;;;;;1891676;28;8074;-65
2021/11/11 07:07:19;;;;;;;;;;;;;;;;;;1895414;28;7967;-65
2021/11/11 07:08:16;;;;;;;;;;;;;;;;;;1895268;28;7328;-65